sensor_id;sensor_type;location;lat;lon;timestamp;pressure;altitude;pressure_sealevel;temperature;humidity
42519;BME280;28147;47.520;18.920;2022-09-25T00:01:11;98311.06;;;13.45;74.17
42519;BME280;28147;47.520;18.920;2022-09-25T00:03:37;98304.34;;;13.43;74.14
42519;BME280;28147;47.520;18.920;2022-09-25T00:06:06;98301.88;;;13.36;74.81
42519;BME280;28147;47.520;18.920;2022-09-25T00:08:34;98303.25;;;13.38;74.86
42519;BME280;28147;47.520;18.920;2022-09-25T00:11:08;98306.50;;;13.19;75.79
42519;BME280;28147;47.520;18.920;2022-09-25T00:13:35;98304.84;;;13.12;75.80
42519;BME280;28147;47.520;18.920;2022-09-25T00:16:01;98291.13;;;13.04;76.49
42519;BME280;28147;47.520;18.920;2022-09-25T00:18:27;98299.34;;;12.97;77.06
42519;BME280;28147;47.520;18.920;2022-09-25T00:21:13;98299.28;;;12.92;77.47
42519;BME280;28147;47.520;18.920;2022-09-25T00:23:40;98287.78;;;12.91;77.48
42519;BME280;28147;47.520;18.920;2022-09-25T00:26:07;98278.69;;;13.14;76.49
42519;BME280;28147;47.520;18.920;2022-09-25T00:28:36;98284.72;;;13.32;75.67
42519;BME280;28147;47.520;18.920;2022-09-25T00:31:04;98281.75;;;13.28;76.03
42519;BME280;28147;47.520;18.920;2022-09-25T00:33:31;98287.81;;;13.19;76.96
42519;BME280;28147;47.520;18.920;2022-09-25T00:36:05;98286.44;;;13.16;76.89
42519;BME280;28147;47.520;18.920;2022-09-25T00:38:32;98285.63;;;13.15;77.01
42519;BME280;28147;47.520;18.920;2022-09-25T00:40:58;98282.75;;;13.22;76.87
42519;BME280;28147;47.520;18.920;2022-09-25T00:46:06;98276.47;;;13.33;76.65
42519;BME280;28147;47.520;18.920;2022-09-25T00:48:33;98282.66;;;13.39;76.53
42519;BME280;28147;47.520;18.920;2022-09-25T00:50:59;98281.81;;;13.33;76.81
42519;BME280;28147;47.520;18.920;2022-09-25T00:53:30;98272.63;;;13.24;77.46
42519;BME280;28147;47.520;18.920;2022-09-25T00:55:57;98280.16;;;13.27;78.07
42519;BME280;28147;47.520;18.920;2022-09-25T00:58:26;98270.00;;;13.29;77.39
42519;BME280;28147;47.520;18.920;2022-09-25T01:00:53;98268.09;;;13.25;78.24
42519;BME280;28147;47.520;18.920;2022-09-25T01:03:20;98273.75;;;13.28;78.34
42519;BME280;28147;47.520;18.920;2022-09-25T01:05:46;98273.28;;;13.36;78.06
42519;BME280;28147;47.520;18.920;2022-09-25T01:08:16;98269.75;;;13.31;78.39
42519;BME280;28147;47.520;18.920;2022-09-25T01:10:43;98264.56;;;13.19;78.90
42519;BME280;28147;47.520;18.920;2022-09-25T01:13:09;98262.69;;;13.20;79.39
42519;BME280;28147;47.520;18.920;2022-09-25T01:15:42;98268.81;;;13.20;79.51
42519;BME280;28147;47.520;18.920;2022-09-25T01:20:59;98266.06;;;13.37;78.96
42519;BME280;28147;47.520;18.920;2022-09-25T01:28:49;98264.44;;;13.68;76.66
42519;BME280;28147;47.520;18.920;2022-09-25T01:31:33;98271.41;;;13.69;76.69
42519;BME280;28147;47.520;18.920;2022-09-25T01:34:09;98263.69;;;13.78;76.17
42519;BME280;28147;47.520;18.920;2022-09-25T01:36:41;98269.84;;;13.78;76.02
42519;BME280;28147;47.520;18.920;2022-09-25T01:41:59;98266.34;;;13.73;75.28
42519;BME280;28147;47.520;18.920;2022-09-25T01:44:30;98260.25;;;13.82;75.03
42519;BME280;28147;47.520;18.920;2022-09-25T01:47:09;98269.25;;;13.71;76.04
42519;BME280;28147;47.520;18.920;2022-09-25T01:49:44;98266.06;;;13.74;76.04
42519;BME280;28147;47.520;18.920;2022-09-25T01:52:14;98263.84;;;13.98;74.14
42519;BME280;28147;47.520;18.920;2022-09-25T01:54:54;98261.41;;;13.97;73.73
42519;BME280;28147;47.520;18.920;2022-09-25T01:57:43;98257.13;;;13.96;74.24
42519;BME280;28147;47.520;18.920;2022-09-25T02:00:15;98245.53;;;13.85;74.90
42519;BME280;28147;47.520;18.920;2022-09-25T02:02:48;98250.06;;;13.79;75.14
42519;BME280;28147;47.520;18.920;2022-09-25T02:05:25;98252.03;;;13.94;74.47
42519;BME280;28147;47.520;18.920;2022-09-25T02:08:00;98254.56;;;13.74;75.13
42519;BME280;28147;47.520;18.920;2022-09-25T02:10:35;98255.84;;;13.66;76.33
42519;BME280;28147;47.520;18.920;2022-09-25T02:13:10;98257.13;;;13.58;76.90
42519;BME280;28147;47.520;18.920;2022-09-25T02:15:41;98253.66;;;13.58;76.85
42519;BME280;28147;47.520;18.920;2022-09-25T02:18:13;98259.19;;;13.46;77.40
42519;BME280;28147;47.520;18.920;2022-09-25T02:21:15;98254.72;;;13.57;76.45
42519;BME280;28147;47.520;18.920;2022-09-25T02:23:50;98264.16;;;13.32;77.87
42519;BME280;28147;47.520;18.920;2022-09-25T02:26:25;98262.41;;;13.21;78.50
42519;BME280;28147;47.520;18.920;2022-09-25T02:28:52;98261.13;;;13.24;78.31
42519;BME280;28147;47.520;18.920;2022-09-25T02:31:20;98260.66;;;13.32;78.03
42519;BME280;28147;47.520;18.920;2022-09-25T02:33:48;98248.84;;;12.96;79.27
42519;BME280;28147;47.520;18.920;2022-09-25T02:36:18;98259.59;;;13.06;79.09
42519;BME280;28147;47.520;18.920;2022-09-25T02:38:45;98254.06;;;12.85;80.14
42519;BME280;28147;47.520;18.920;2022-09-25T02:56:05;98242.31;;;12.86;79.26
42519;BME280;28147;47.520;18.920;2022-09-25T03:00:34;98247.03;;;13.06;78.28
42519;BME280;28147;47.520;18.920;2022-09-25T03:03:03;98239.88;;;13.12;78.08
42519;BME280;28147;47.520;18.920;2022-09-25T03:05:32;98235.75;;;12.99;78.42
42519;BME280;28147;47.520;18.920;2022-09-25T03:07:58;98236.50;;;12.95;78.88
42519;BME280;28147;47.520;18.920;2022-09-25T03:10:42;98236.47;;;12.89;79.07
42519;BME280;28147;47.520;18.920;2022-09-25T03:13:19;98230.16;;;13.01;78.34
42519;BME280;28147;47.520;18.920;2022-09-25T03:15:49;98227.47;;;12.96;78.36
42519;BME280;28147;47.520;18.920;2022-09-25T03:18:16;98227.88;;;12.87;79.20
42519;BME280;28147;47.520;18.920;2022-09-25T03:20:42;98223.38;;;12.88;79.22
42519;BME280;28147;47.520;18.920;2022-09-25T03:23:07;98221.66;;;13.04;78.03
42519;BME280;28147;47.520;18.920;2022-09-25T03:25:33;98227.19;;;12.97;78.57
42519;BME280;28147;47.520;18.920;2022-09-25T03:27:59;98227.81;;;12.77;80.51
42519;BME280;28147;47.520;18.920;2022-09-25T03:30:24;98218.47;;;12.80;80.57
42519;BME280;28147;47.520;18.920;2022-09-25T03:32:49;98222.63;;;12.93;79.74
42519;BME280;28147;47.520;18.920;2022-09-25T03:35:15;98219.56;;;12.84;80.37
42519;BME280;28147;47.520;18.920;2022-09-25T03:37:40;98223.50;;;12.76;81.12
42519;BME280;28147;47.520;18.920;2022-09-25T03:40:06;98219.72;;;12.72;81.47
42519;BME280;28147;47.520;18.920;2022-09-25T03:42:31;98218.63;;;12.68;81.69
42519;BME280;28147;47.520;18.920;2022-09-25T03:44:57;98229.94;;;12.80;81.24
42519;BME280;28147;47.520;18.920;2022-09-25T03:47:22;98232.09;;;12.78;80.75
42519;BME280;28147;47.520;18.920;2022-09-25T03:49:47;98244.81;;;12.71;81.67
42519;BME280;28147;47.520;18.920;2022-09-25T03:52:13;98247.47;;;12.66;81.79
42519;BME280;28147;47.520;18.920;2022-09-25T03:54:39;98249.09;;;12.72;81.26
42519;BME280;28147;47.520;18.920;2022-09-25T03:57:04;98258.13;;;12.66;81.79
42519;BME280;28147;47.520;18.920;2022-09-25T03:59:30;98249.31;;;12.65;82.47
42519;BME280;28147;47.520;18.920;2022-09-25T04:01:55;98252.31;;;12.69;82.85
42519;BME280;28147;47.520;18.920;2022-09-25T04:04:21;98258.31;;;12.59;83.54
42519;BME280;28147;47.520;18.920;2022-09-25T04:06:47;98247.69;;;12.64;83.79
42519;BME280;28147;47.520;18.920;2022-09-25T04:09:12;98252.09;;;12.76;82.66
42519;BME280;28147;47.520;18.920;2022-09-25T04:11:38;98258.53;;;12.80;82.95
42519;BME280;28147;47.520;18.920;2022-09-25T04:14:04;98247.78;;;12.97;82.15
42519;BME280;28147;47.520;18.920;2022-09-25T04:16:29;98250.03;;;12.83;83.29
42519;BME280;28147;47.520;18.920;2022-09-25T04:18:56;98240.59;;;12.75;83.79
42519;BME280;28147;47.520;18.920;2022-09-25T04:21:22;98245.59;;;12.94;82.98
42519;BME280;28147;47.520;18.920;2022-09-25T04:23:47;98241.31;;;12.93;82.88
42519;BME280;28147;47.520;18.920;2022-09-25T04:26:32;98234.53;;;13.12;81.55
42519;BME280;28147;47.520;18.920;2022-09-25T04:28:57;98243.34;;;13.07;81.82
42519;BME280;28147;47.520;18.920;2022-09-25T04:31:26;98244.13;;;13.08;82.00
42519;BME280;28147;47.520;18.920;2022-09-25T04:33:51;98242.44;;;13.24;80.61
42519;BME280;28147;47.520;18.920;2022-09-25T04:36:17;98243.31;;;13.34;80.30
42519;BME280;28147;47.520;18.920;2022-09-25T04:38:43;98232.19;;;13.48;79.82
42519;BME280;28147;47.520;18.920;2022-09-25T04:41:08;98227.28;;;13.34;80.31
42519;BME280;28147;47.520;18.920;2022-09-25T04:43:34;98223.75;;;13.29;81.03
42519;BME280;28147;47.520;18.920;2022-09-25T04:46:04;98232.84;;;13.28;80.24
42519;BME280;28147;47.520;18.920;2022-09-25T04:48:31;98235.78;;;13.26;81.00
42519;BME280;28147;47.520;18.920;2022-09-25T04:50:57;98235.34;;;13.12;82.22
42519;BME280;28147;47.520;18.920;2022-09-25T04:53:24;98241.28;;;13.20;82.10
42519;BME280;28147;47.520;18.920;2022-09-25T04:55:50;98233.59;;;13.23;81.78
42519;BME280;28147;47.520;18.920;2022-09-25T04:58:18;98243.31;;;13.34;81.19
42519;BME280;28147;47.520;18.920;2022-09-25T05:00:44;98242.00;;;13.37;81.10
42519;BME280;28147;47.520;18.920;2022-09-25T05:03:11;98246.50;;;13.31;81.72
42519;BME280;28147;47.520;18.920;2022-09-25T05:05:36;98242.47;;;13.29;81.31
42519;BME280;28147;47.520;18.920;2022-09-25T05:08:02;98246.81;;;13.35;81.60
42519;BME280;28147;47.520;18.920;2022-09-25T05:10:30;98240.34;;;13.31;82.48
42519;BME280;28147;47.520;18.920;2022-09-25T05:13:00;98238.75;;;13.30;82.97
42519;BME280;28147;47.520;18.920;2022-09-25T05:15:27;98239.97;;;13.49;81.53
42519;BME280;28147;47.520;18.920;2022-09-25T05:20:38;98246.41;;;13.53;81.51
42519;BME280;28147;47.520;18.920;2022-09-25T05:23:04;98235.16;;;13.51;82.32
42519;BME280;28147;47.520;18.920;2022-09-25T05:25:30;98253.22;;;13.71;81.07
42519;BME280;28147;47.520;18.920;2022-09-25T05:28:00;98243.63;;;13.75;81.52
42519;BME280;28147;47.520;18.920;2022-09-25T05:30:29;98239.09;;;13.76;81.83
42519;BME280;28147;47.520;18.920;2022-09-25T05:32:55;98236.66;;;13.74;81.93
42519;BME280;28147;47.520;18.920;2022-09-25T05:35:26;98242.00;;;13.74;82.82
42519;BME280;28147;47.520;18.920;2022-09-25T05:37:52;98238.50;;;13.69;83.30
42519;BME280;28147;47.520;18.920;2022-09-25T05:40:19;98251.06;;;13.68;84.08
42519;BME280;28147;47.520;18.920;2022-09-25T05:42:48;98253.22;;;13.71;83.97
42519;BME280;28147;47.520;18.920;2022-09-25T05:45:14;98253.28;;;13.81;83.71
42519;BME280;28147;47.520;18.920;2022-09-25T05:47:41;98251.97;;;13.84;83.65
42519;BME280;28147;47.520;18.920;2022-09-25T05:50:08;98250.19;;;14.00;82.62
42519;BME280;28147;47.520;18.920;2022-09-25T05:52:34;98250.19;;;14.00;81.79
42519;BME280;28147;47.520;18.920;2022-09-25T05:55:00;98254.75;;;14.04;81.62
42519;BME280;28147;47.520;18.920;2022-09-25T05:57:29;98242.19;;;14.05;82.47
42519;BME280;28147;47.520;18.920;2022-09-25T05:59:55;98249.19;;;14.16;82.65
42519;BME280;28147;47.520;18.920;2022-09-25T06:02:20;98250.91;;;14.32;82.44
42519;BME280;28147;47.520;18.920;2022-09-25T06:04:46;98258.06;;;14.22;83.34
42519;BME280;28147;47.520;18.920;2022-09-25T06:07:11;98269.59;;;14.22;83.08
42519;BME280;28147;47.520;18.920;2022-09-25T06:09:36;98282.19;;;14.27;81.34
42519;BME280;28147;47.520;18.920;2022-09-25T06:12:02;98277.41;;;14.34;81.07
42519;BME280;28147;47.520;18.920;2022-09-25T06:14:28;98280.09;;;14.34;81.52
42519;BME280;28147;47.520;18.920;2022-09-25T06:16:54;98283.84;;;14.43;80.97
42519;BME280;28147;47.520;18.920;2022-09-25T06:19:19;98277.41;;;14.34;81.81
42519;BME280;28147;47.520;18.920;2022-09-25T06:21:45;98283.03;;;14.32;81.63
42519;BME280;28147;47.520;18.920;2022-09-25T06:24:11;98284.06;;;14.31;80.87
42519;BME280;28147;47.520;18.920;2022-09-25T06:26:38;98284.91;;;14.32;81.28
42519;BME280;28147;47.520;18.920;2022-09-25T06:29:04;98287.03;;;14.35;81.43
42519;BME280;28147;47.520;18.920;2022-09-25T06:31:32;98288.97;;;14.40;81.08
42519;BME280;28147;47.520;18.920;2022-09-25T06:33:58;98292.72;;;14.44;80.57
42519;BME280;28147;47.520;18.920;2022-09-25T06:36:23;98289.75;;;14.40;81.20
42519;BME280;28147;47.520;18.920;2022-09-25T06:38:52;98284.88;;;14.27;80.77
42519;BME280;28147;47.520;18.920;2022-09-25T06:41:18;98289.75;;;14.40;79.46
42519;BME280;28147;47.520;18.920;2022-09-25T06:43:47;98270.81;;;14.52;79.04
42519;BME280;28147;47.520;18.920;2022-09-25T06:46:13;98285.59;;;14.70;77.60
42519;BME280;28147;47.520;18.920;2022-09-25T06:48:38;98289.13;;;14.75;76.63
42519;BME280;28147;47.520;18.920;2022-09-25T06:51:04;98288.88;;;14.82;77.37
42519;BME280;28147;47.520;18.920;2022-09-25T06:53:33;98289.97;;;14.86;77.26
42519;BME280;28147;47.520;18.920;2022-09-25T06:55:58;98301.53;;;14.97;77.11
42519;BME280;28147;47.520;18.920;2022-09-25T06:58:24;98301.81;;;15.00;77.48
42519;BME280;28147;47.520;18.920;2022-09-25T07:00:53;98301.53;;;14.97;77.43
42519;BME280;28147;47.520;18.920;2022-09-25T07:03:18;98289.63;;;14.72;76.15
42519;BME280;28147;47.520;18.920;2022-09-25T07:06:04;98298.53;;;14.83;75.61
42519;BME280;28147;47.520;18.920;2022-09-25T07:08:30;98289.41;;;14.79;77.13
42519;BME280;28147;47.520;18.920;2022-09-25T07:10:57;98280.56;;;14.83;77.07
42519;BME280;28147;47.520;18.920;2022-09-25T07:13:25;98277.00;;;14.57;75.72
42519;BME280;28147;47.520;18.920;2022-09-25T07:15:58;98281.56;;;14.62;76.49
42519;BME280;28147;47.520;18.920;2022-09-25T07:18:24;98282.69;;;14.24;76.37
42519;BME280;28147;47.520;18.920;2022-09-25T07:20:51;98284.28;;;14.67;76.18
42519;BME280;28147;47.520;18.920;2022-09-25T07:23:19;98284.50;;;14.60;76.04
42519;BME280;28147;47.520;18.920;2022-09-25T07:25:45;98279.47;;;14.79;74.53
42519;BME280;28147;47.520;18.920;2022-09-25T07:28:11;98290.56;;;15.08;73.54
42519;BME280;28147;47.520;18.920;2022-09-25T07:30:38;98285.44;;;15.02;73.43
42519;BME280;28147;47.520;18.920;2022-09-25T07:33:04;98290.28;;;15.15;72.82
42519;BME280;28147;47.520;18.920;2022-09-25T07:35:29;98284.38;;;14.93;74.51
42519;BME280;28147;47.520;18.920;2022-09-25T07:37:58;98279.53;;;14.95;72.90
42519;BME280;28147;47.520;18.920;2022-09-25T07:40:24;98281.59;;;14.67;74.91
42519;BME280;28147;47.520;18.920;2022-09-25T07:42:51;98281.13;;;14.96;73.95
42519;BME280;28147;47.520;18.920;2022-09-25T07:45:17;98277.44;;;15.32;73.10
42519;BME280;28147;47.520;18.920;2022-09-25T07:47:43;98275.72;;;14.80;74.01
42519;BME280;28147;47.520;18.920;2022-09-25T07:50:08;98268.81;;;14.95;73.24
42519;BME280;28147;47.520;18.920;2022-09-25T07:52:34;98261.06;;;15.08;73.39
42519;BME280;28147;47.520;18.920;2022-09-25T07:54:59;98261.81;;;14.78;74.13
42519;BME280;28147;47.520;18.920;2022-09-25T07:57:24;98257.56;;;14.98;73.21
42519;BME280;28147;47.520;18.920;2022-09-25T07:59:51;98269.31;;;14.87;75.13
42519;BME280;28147;47.520;18.920;2022-09-25T08:02:17;98264.81;;;15.02;74.79
42519;BME280;28147;47.520;18.920;2022-09-25T08:04:42;98248.75;;;15.28;74.35
42519;BME280;28147;47.520;18.920;2022-09-25T08:07:07;98253.81;;;14.94;75.00
42519;BME280;28147;47.520;18.920;2022-09-25T08:09:33;98259.16;;;14.99;74.04
42519;BME280;28147;47.520;18.920;2022-09-25T08:11:58;98260.78;;;15.10;73.88
42519;BME280;28147;47.520;18.920;2022-09-25T08:14:23;98266.13;;;15.00;73.65
42519;BME280;28147;47.520;18.920;2022-09-25T08:16:49;98271.25;;;15.22;73.48
42519;BME280;28147;47.520;18.920;2022-09-25T08:19:16;98277.91;;;14.94;74.21
42519;BME280;28147;47.520;18.920;2022-09-25T08:21:43;98277.13;;;14.93;74.07
42519;BME280;28147;47.520;18.920;2022-09-25T08:24:09;98277.41;;;15.07;74.63
42519;BME280;28147;47.520;18.920;2022-09-25T08:26:35;98276.06;;;15.04;75.09
42519;BME280;28147;47.520;18.920;2022-09-25T08:29:01;98275.22;;;14.89;74.34
42519;BME280;28147;47.520;18.920;2022-09-25T08:31:26;98272.84;;;15.07;74.64
42519;BME280;28147;47.520;18.920;2022-09-25T08:33:52;98274.72;;;15.07;73.81
42519;BME280;28147;47.520;18.920;2022-09-25T08:36:18;98277.41;;;14.97;74.22
42519;BME280;28147;47.520;18.920;2022-09-25T08:38:45;98269.56;;;14.75;74.18
42519;BME280;28147;47.520;18.920;2022-09-25T08:41:26;98276.88;;;15.05;74.19
42519;BME280;28147;47.520;18.920;2022-09-25T08:46:46;98269.91;;;15.29;74.34
42519;BME280;28147;47.520;18.920;2022-09-25T08:49:45;98276.38;;;15.23;74.00
42519;BME280;28147;47.520;18.920;2022-09-25T08:52:17;98270.22;;;15.23;73.07
42519;BME280;28147;47.520;18.920;2022-09-25T08:54:45;98268.81;;;15.15;74.04
42519;BME280;28147;47.520;18.920;2022-09-25T08:57:31;98274.19;;;15.10;73.38
42519;BME280;28147;47.520;18.920;2022-09-25T09:00:05;98273.38;;;14.99;74.02
42519;BME280;28147;47.520;18.920;2022-09-25T09:02:43;98275.78;;;14.96;74.39
42519;BME280;28147;47.520;18.920;2022-09-25T09:07:51;98276.31;;;14.98;73.48
42519;BME280;28147;47.520;18.920;2022-09-25T09:12:57;98279.56;;;15.15;74.03
42519;BME280;28147;47.520;18.920;2022-09-25T09:15:39;98278.50;;;15.26;74.04
42519;BME280;28147;47.520;18.920;2022-09-25T09:20:50;98279.03;;;15.13;73.70
42519;BME280;28147;47.520;18.920;2022-09-25T09:23:18;98284.09;;;14.99;75.90
42519;BME280;28147;47.520;18.920;2022-09-25T09:28:53;98279.50;;;14.84;76.18
42519;BME280;28147;47.520;18.920;2022-09-25T09:37:05;98279.22;;;14.81;76.90
42519;BME280;28147;47.520;18.920;2022-09-25T09:53:22;98283.56;;;15.02;77.53
42519;BME280;28147;47.520;18.920;2022-09-25T09:55:52;98274.41;;;14.88;78.94
42519;BME280;28147;47.520;18.920;2022-09-25T09:58:26;98272.06;;;15.17;78.14
42519;BME280;28147;47.520;18.920;2022-09-25T10:00:54;98271.28;;;15.63;77.60
42519;BME280;28147;47.520;18.920;2022-09-25T10:03:26;98268.31;;;15.59;79.02
42519;BME280;28147;47.520;18.920;2022-09-25T10:06:01;98273.44;;;15.50;77.04
42519;BME280;28147;47.520;18.920;2022-09-25T10:08:27;98267.25;;;15.40;79.16
42519;BME280;28147;47.520;18.920;2022-09-25T10:10:53;98265.09;;;15.42;81.06
42519;BME280;28147;47.520;18.920;2022-09-25T10:13:38;98272.81;;;14.82;83.50
42519;BME280;28147;47.520;18.920;2022-09-25T10:16:06;98277.94;;;15.14;84.71
42519;BME280;28147;47.520;18.920;2022-09-25T10:19:21;98276.28;;;14.77;85.36
42519;BME280;28147;47.520;18.920;2022-09-25T10:24:59;98280.59;;;14.94;85.36
42519;BME280;28147;47.520;18.920;2022-09-25T10:27:27;98275.28;;;15.04;84.03
42519;BME280;28147;47.520;18.920;2022-09-25T10:35:21;98271.50;;;15.10;86.84
42519;BME280;28147;47.520;18.920;2022-09-25T10:37:51;98264.28;;;15.05;87.21
42519;BME280;28147;47.520;18.920;2022-09-25T10:40:37;98255.47;;;15.30;88.42
42519;BME280;28147;47.520;18.920;2022-09-25T10:43:20;98257.59;;;15.13;88.32
42519;BME280;28147;47.520;18.920;2022-09-25T10:45:47;98256.25;;;15.36;86.39
42519;BME280;28147;47.520;18.920;2022-09-25T10:48:29;98257.31;;;15.40;87.99
42519;BME280;28147;47.520;18.920;2022-09-25T10:51:16;98250.09;;;15.51;89.18
42519;BME280;28147;47.520;18.920;2022-09-25T10:53:43;98248.47;;;15.55;88.84
42519;BME280;28147;47.520;18.920;2022-09-25T10:56:12;98245.25;;;15.17;89.33
42519;BME280;28147;47.520;18.920;2022-09-25T11:01:14;98244.75;;;15.30;91.51
42519;BME280;28147;47.520;18.920;2022-09-25T11:03:47;98241.50;;;15.39;91.86
42519;BME280;28147;47.520;18.920;2022-09-25T11:08:48;98221.13;;;15.43;87.34
42519;BME280;28147;47.520;18.920;2022-09-25T11:11:22;98235.88;;;15.25;91.29
42519;BME280;28147;47.520;18.920;2022-09-25T11:13:53;98236.94;;;15.34;89.83
42519;BME280;28147;47.520;18.920;2022-09-25T11:16:20;98242.03;;;15.61;89.93
42519;BME280;28147;47.520;18.920;2022-09-25T11:18:50;98234.25;;;15.65;89.20
42519;BME280;28147;47.520;18.920;2022-09-25T11:24:17;98239.06;;;15.63;87.84
42519;BME280;28147;47.520;18.920;2022-09-25T11:29:34;98242.84;;;15.21;89.13
42519;BME280;28147;47.520;18.920;2022-09-25T11:40:38;98230.78;;;15.23;91.24
42519;BME280;28147;47.520;18.920;2022-09-25T11:49:29;98229.44;;;15.36;90.75
42519;BME280;28147;47.520;18.920;2022-09-25T12:13:44;98224.06;;;14.17;97.74
42519;BME280;28147;47.520;18.920;2022-09-25T12:18:55;98224.22;;;14.53;97.21
42519;BME280;28147;47.520;18.920;2022-09-25T12:21:46;98222.13;;;14.70;96.49
42519;BME280;28147;47.520;18.920;2022-09-25T12:27:52;98213.06;;;15.07;94.00
42519;BME280;28147;47.520;18.920;2022-09-25T12:30:24;98216.81;;;15.26;91.55
42519;BME280;28147;47.520;18.920;2022-09-25T12:33:12;98216.00;;;15.11;91.85
42519;BME280;28147;47.520;18.920;2022-09-25T12:38:40;98212.00;;;15.18;91.74
42519;BME280;28147;47.520;18.920;2022-09-25T12:41:16;98214.13;;;14.86;95.91
42519;BME280;28147;47.520;18.920;2022-09-25T12:43:56;98215.91;;;14.49;99.48
42519;BME280;28147;47.520;18.920;2022-09-25T12:46:40;98204.94;;;14.56;98.53
42519;BME280;28147;47.520;18.920;2022-09-25T12:51:49;98193.22;;;14.82;98.61
42519;BME280;28147;47.520;18.920;2022-09-25T12:56:54;98205.75;;;14.62;100.00
42519;BME280;28147;47.520;18.920;2022-09-25T12:59:50;98199.66;;;14.81;100.00
42519;BME280;28147;47.520;18.920;2022-09-25T13:02:20;98213.00;;;14.66;100.00
42519;BME280;28147;47.520;18.920;2022-09-25T13:07:41;98194.06;;;14.15;100.00
42519;BME280;28147;47.520;18.920;2022-09-25T13:10:55;98190.25;;;14.74;100.00
42519;BME280;28147;47.520;18.920;2022-09-25T13:13:26;98187.31;;;14.86;100.00
42519;BME280;28147;47.520;18.920;2022-09-25T13:15:57;98191.06;;;14.90;100.00
42519;BME280;28147;47.520;18.920;2022-09-25T13:18:26;98185.69;;;15.00;99.57
42519;BME280;28147;47.520;18.920;2022-09-25T13:20:56;98196.97;;;14.92;100.00
42519;BME280;28147;47.520;18.920;2022-09-25T13:23:33;98198.81;;;14.71;100.00
42519;BME280;28147;47.520;18.920;2022-09-25T13:28:38;98199.00;;;14.44;100.00
42519;BME280;28147;47.520;18.920;2022-09-25T13:31:11;98201.66;;;14.49;100.00
42519;BME280;28147;47.520;18.920;2022-09-25T13:33:47;98201.75;;;14.64;100.00
42519;BME280;28147;47.520;18.920;2022-09-25T13:50:05;98186.41;;;14.44;100.00
42519;BME280;28147;47.520;18.920;2022-09-25T13:55:13;98183.00;;;14.59;100.00
42519;BME280;28147;47.520;18.920;2022-09-25T14:00:24;98184.59;;;14.60;100.00
42519;BME280;28147;47.520;18.920;2022-09-25T14:02:51;98181.84;;;14.40;100.00
42519;BME280;28147;47.520;18.920;2022-09-25T14:05:25;98186.03;;;14.20;100.00
42519;BME280;28147;47.520;18.920;2022-09-25T14:07:59;98179.69;;;14.47;100.00
42519;BME280;28147;47.520;18.920;2022-09-25T14:10:26;98184.19;;;14.31;100.00
42519;BME280;28147;47.520;18.920;2022-09-25T14:12:52;98179.84;;;14.09;100.00
42519;BME280;28147;47.520;18.920;2022-09-25T14:15:25;98187.41;;;14.28;100.00
42519;BME280;28147;47.520;18.920;2022-09-25T14:17:54;98180.97;;;14.24;100.00
42519;BME280;28147;47.520;18.920;2022-09-25T14:20:29;98188.66;;;14.05;100.00
42519;BME280;28147;47.520;18.920;2022-09-25T14:22:57;98182.50;;;14.04;100.00
42519;BME280;28147;47.520;18.920;2022-09-25T14:27:52;98169.84;;;14.52;100.00
42519;BME280;28147;47.520;18.920;2022-09-25T14:30:18;98165.16;;;14.17;100.00
42519;BME280;28147;47.520;18.920;2022-09-25T14:40:36;98162.59;;;13.85;100.00
42519;BME280;28147;47.520;18.920;2022-09-25T14:46:08;98151.50;;;14.14;100.00
42519;BME280;28147;47.520;18.920;2022-09-25T14:48:40;98161.47;;;14.33;100.00
42519;BME280;28147;47.520;18.920;2022-09-25T14:51:09;98163.34;;;14.33;100.00
42519;BME280;28147;47.520;18.920;2022-09-25T14:53:41;98159.56;;;14.29;100.00
42519;BME280;28147;47.520;18.920;2022-09-25T14:56:09;98161.94;;;14.15;100.00
42519;BME280;28147;47.520;18.920;2022-09-25T14:58:47;98168.38;;;14.24;100.00
42519;BME280;28147;47.520;18.920;2022-09-25T15:01:26;98169.44;;;14.23;100.00
42519;BME280;28147;47.520;18.920;2022-09-25T15:03:58;98165.41;;;14.16;100.00
42519;BME280;28147;47.520;18.920;2022-09-25T15:06:29;98158.50;;;14.25;100.00
42519;BME280;28147;47.520;18.920;2022-09-25T15:08:56;98160.66;;;14.38;100.00
42519;BME280;28147;47.520;18.920;2022-09-25T15:11:26;98155.72;;;14.04;100.00
42519;BME280;28147;47.520;18.920;2022-09-25T15:13:54;98160.31;;;14.14;100.00
42519;BME280;28147;47.520;18.920;2022-09-25T15:16:22;98164.25;;;13.91;100.00
42519;BME280;28147;47.520;18.920;2022-09-25T15:19:18;98165.63;;;13.99;100.00
42519;BME280;28147;47.520;18.920;2022-09-25T15:21:45;98161.41;;;14.18;100.00
42519;BME280;28147;47.520;18.920;2022-09-25T15:24:16;98156.00;;;14.03;100.00
42519;BME280;28147;47.520;18.920;2022-09-25T15:26:55;98158.41;;;13.99;100.00
42519;BME280;28147;47.520;18.920;2022-09-25T15:29:27;98157.88;;;14.02;100.00
42519;BME280;28147;47.520;18.920;2022-09-25T15:31:53;98160.31;;;14.14;100.00
42519;BME280;28147;47.520;18.920;2022-09-25T15:34:29;98149.50;;;13.88;100.00
42519;BME280;28147;47.520;18.920;2022-09-25T15:39:53;98141.59;;;14.14;100.00
42519;BME280;28147;47.520;18.920;2022-09-25T15:42:19;98140.97;;;15.00;100.00
42519;BME280;28147;47.520;18.920;2022-09-25T15:44:45;98140.91;;;14.70;100.00
42519;BME280;28147;47.520;18.920;2022-09-25T15:49:59;98141.19;;;14.63;100.00
42519;BME280;28147;47.520;18.920;2022-09-25T15:52:27;98142.03;;;14.89;100.00
42519;BME280;28147;47.520;18.920;2022-09-25T15:55:10;98144.97;;;14.67;100.00
42519;BME280;28147;47.520;18.920;2022-09-25T15:57:39;98129.97;;;14.66;100.00
42519;BME280;28147;47.520;18.920;2022-09-25T16:00:07;98131.28;;;14.58;100.00
42519;BME280;28147;47.520;18.920;2022-09-25T16:03:02;98127.50;;;14.49;100.00